Time;durP1;ratioP1;P1;durP2;ratioP2;P2;SDS_P1;SDS_P2;PMS_P1;PMS_P2;Temp;Humidity;BMP_temperature;BMP_pressure;BME280_temperature;BME280_humidity;BME280_pressure;Samples;Min_cycle;Max_cycle;Signal;HPM_P1;HPM_P2
2020/12/11 00:01:30;;;;;;;19.23;10.37;;;-0.20;99.90;;;;;;5070441;28;20451;-51
2020/12/11 00:03:58;;;;;;;20.50;11.37;;;-0.20;99.90;;;;;;5071028;28;20482;-51
2020/12/11 00:06:25;;;;;;;17.13;10.07;;;-0.30;99.90;;;;;;5070663;28;20851;-51
2020/12/11 00:08:51;;;;;;;20.43;10.57;;;-0.30;99.90;;;;;;5070640;28;20444;-50
2020/12/11 00:11:25;;;;;;;17.10;9.77;;;-0.30;99.90;;;;;;5070754;28;20859;-50
2020/12/11 00:13:51;;;;;;;23.17;10.80;;;-0.20;99.90;;;;;;5070647;28;20465;-51
2020/12/11 00:16:18;;;;;;;25.00;11.93;;;-0.20;99.90;;;;;;5070373;28;21070;-51
2020/12/11 00:18:45;;;;;;;23.30;12.27;;;-0.20;99.90;;;;;;5070385;28;20455;-52
2020/12/11 00:21:11;;;;;;;22.47;11.50;;;-0.30;99.90;;;;;;5070703;28;20450;-51
2020/12/11 00:23:38;;;;;;;22.83;12.53;;;-0.40;99.90;;;;;;5070653;28;20466;-51
2020/12/11 00:26:04;;;;;;;20.73;11.07;;;-0.50;99.90;;;;;;5069929;28;20654;-50
2020/12/11 00:28:32;;;;;;;19.67;10.20;;;-0.50;99.90;;;;;;5069437;28;20759;-51
2020/12/11 00:30:59;;;;;;;23.43;11.40;;;-0.40;99.90;;;;;;5070204;28;20457;-51
2020/12/11 00:33:26;;;;;;;20.43;11.50;;;-0.40;99.90;;;;;;5070319;28;20479;-51
2020/12/11 00:35:53;;;;;;;21.17;10.43;;;-0.30;99.90;;;;;;5070773;28;20485;-50
2020/12/11 00:38:20;;;;;;;21.70;11.20;;;-0.40;99.90;;;;;;5070614;28;20442;-51
2020/12/11 00:40:47;;;;;;;18.27;10.63;;;-0.30;99.90;;;;;;5070172;28;20537;-51
2020/12/11 00:43:14;;;;;;;19.07;10.23;;;-0.30;99.90;;;;;;5069963;28;20508;-51
2020/12/11 00:45:41;;;;;;;22.07;10.87;;;-0.30;99.90;;;;;;5070666;28;20457;-51
2020/12/11 00:48:08;;;;;;;22.10;11.77;;;-0.30;99.90;;;;;;5070661;28;20884;-51
2020/12/11 00:50:34;;;;;;;19.83;11.33;;;-0.40;99.90;;;;;;5070441;28;20510;-51
2020/12/11 00:53:01;;;;;;;25.93;11.70;;;-0.60;99.90;;;;;;5070563;28;20462;-51
2020/12/11 00:55:27;;;;;;;22.13;11.50;;;-0.50;99.90;;;;;;5070143;28;20451;-51
2020/12/11 00:57:54;;;;;;;25.13;11.17;;;-0.60;99.90;;;;;;5070707;28;20457;-50
2020/12/11 01:00:20;;;;;;;19.63;10.87;;;-0.90;99.90;;;;;;5070267;28;20447;-50
2020/12/11 01:02:48;;;;;;;22.07;11.00;;;-0.90;99.90;;;;;;5069826;28;20531;-50
2020/12/11 01:05:14;;;;;;;21.03;9.83;;;-0.90;99.90;;;;;;5070561;28;20511;-50
2020/12/11 01:07:41;;;;;;;17.33;10.33;;;-0.90;99.90;;;;;;5070558;28;20453;-51
2020/12/11 01:10:08;;;;;;;20.33;10.17;;;-0.80;99.90;;;;;;5070125;28;20498;-51
2020/12/11 01:12:35;;;;;;;18.10;9.50;;;-0.70;99.90;;;;;;5070165;28;20907;-51
2020/12/11 01:15:02;;;;;;;19.10;10.10;;;-0.60;99.90;;;;;;5070239;28;21014;-51
2020/12/11 01:17:28;;;;;;;18.07;10.30;;;-0.80;99.90;;;;;;5070027;28;21254;-51
2020/12/11 01:19:55;;;;;;;20.13;10.37;;;-0.90;99.90;;;;;;5070213;28;20872;-51
2020/12/11 01:22:22;;;;;;;19.83;9.80;;;-0.80;99.90;;;;;;5069937;28;20457;-50
2020/12/11 01:24:48;;;;;;;18.43;10.30;;;-0.80;99.90;;;;;;5070599;28;20443;-51
2020/12/11 01:27:15;;;;;;;20.37;10.10;;;-0.80;99.90;;;;;;5070290;28;20450;-51
2020/12/11 01:29:41;;;;;;;18.43;9.47;;;-0.70;99.90;;;;;;5069785;28;20455;-51
2020/12/11 01:32:08;;;;;;;18.87;9.87;;;-0.70;99.90;;;;;;5070081;28;20452;-50
2020/12/11 01:34:34;;;;;;;20.63;11.40;;;-0.70;99.90;;;;;;5070288;28;20465;-51
2020/12/11 01:37:05;;;;;;;21.20;11.30;;;-0.90;99.90;;;;;;5069867;28;20481;-51
2020/12/11 01:39:32;;;;;;;18.80;10.83;;;-1.00;99.90;;;;;;5069379;28;20450;-51
2020/12/11 01:41:59;;;;;;;23.30;11.67;;;-1.00;99.90;;;;;;5073846;28;20461;-51
2020/12/11 01:44:27;;;;;;;24.23;11.43;;;-1.10;99.90;;;;;;5073918;28;20529;-51
2020/12/11 01:46:56;;;;;;;25.47;11.20;;;-1.20;99.90;;;;;;5073986;28;20447;-51
2020/12/11 01:49:23;;;;;;;25.10;12.07;;;-1.10;99.90;;;;;;5073742;28;20449;-51
2020/12/11 01:51:50;;;;;;;24.80;11.40;;;-1.20;99.90;;;;;;5073549;28;20447;-50
2020/12/11 01:54:18;;;;;;;23.10;11.37;;;-1.40;99.90;;;;;;5073789;28;20560;-51
2020/12/11 01:56:51;;;;;;;21.73;10.60;;;-1.20;99.90;;;;;;5073913;28;20900;-51
2020/12/11 01:59:23;;;;;;;21.87;10.90;;;-1.20;99.90;;;;;;5073668;28;20527;-50
2020/12/11 02:01:53;;;;;;;20.13;9.93;;;-1.30;99.90;;;;;;5073806;28;20522;-51
2020/12/11 02:04:20;;;;;;;16.70;9.97;;;-1.30;99.90;;;;;;5073527;28;20524;-51
2020/12/11 02:06:51;;;;;;;22.10;10.60;;;-1.30;99.90;;;;;;5073529;28;20807;-50
2020/12/11 02:09:19;;;;;;;19.30;9.60;;;-1.30;99.90;;;;;;5073667;28;20448;-50
2020/12/11 02:11:49;;;;;;;21.67;10.97;;;-1.20;99.90;;;;;;5073672;28;20451;-50
2020/12/11 02:14:16;;;;;;;21.13;10.50;;;-1.00;99.90;;;;;;5073791;28;20513;-51
2020/12/11 02:16:42;;;;;;;25.47;12.10;;;-1.10;99.90;;;;;;5073420;28;20538;-51
2020/12/11 02:19:09;;;;;;;20.37;10.30;;;-1.20;99.90;;;;;;5073192;28;20456;-50
2020/12/11 02:21:36;;;;;;;18.80;9.90;;;-1.20;99.90;;;;;;5073525;28;20886;-50
2020/12/11 02:24:04;;;;;;;19.90;10.60;;;-1.40;99.90;;;;;;5073226;28;20964;-51
2020/12/11 02:26:30;;;;;;;18.53;9.70;;;-1.40;99.90;;;;;;5073355;28;20995;-51
2020/12/11 02:28:58;;;;;;;23.23;10.80;;;-1.50;99.90;;;;;;5073112;28;20447;-50
2020/12/11 02:31:24;;;;;;;21.63;10.50;;;-1.50;99.90;;;;;;5072869;28;20456;-51
2020/12/11 02:33:51;;;;;;;18.77;10.43;;;-1.50;99.90;;;;;;5072326;28;20467;-51
2020/12/11 02:36:20;;;;;;;17.83;9.10;;;-1.60;99.90;;;;;;5073028;28;20482;-50
2020/12/11 02:38:47;;;;;;;21.93;10.10;;;-1.50;99.90;;;;;;5073073;28;20541;-51
2020/12/11 02:41:14;;;;;;;20.17;10.00;;;-1.50;99.90;;;;;;5073088;28;20504;-50
2020/12/11 02:43:40;;;;;;;20.57;10.00;;;-1.40;99.90;;;;;;5072973;28;20471;-51
2020/12/11 02:46:07;;;;;;;20.57;10.43;;;-1.50;99.90;;;;;;5072962;28;20500;-51
2020/12/11 02:48:33;;;;;;;19.70;9.93;;;-1.40;99.90;;;;;;5072815;28;20447;-51
2020/12/11 02:51:00;;;;;;;20.90;11.13;;;-1.40;99.90;;;;;;5072170;28;20871;-50
2020/12/11 02:53:27;;;;;;;17.40;9.10;;;-1.50;99.90;;;;;;5072868;28;20463;-50
2020/12/11 02:55:57;;;;;;;19.03;9.47;;;-1.40;99.90;;;;;;5072789;28;21037;-50
2020/12/11 02:58:23;;;;;;;20.30;9.20;;;-1.40;99.90;;;;;;5072644;28;21025;-51
2020/12/11 03:00:50;;;;;;;17.13;9.07;;;-1.60;99.90;;;;;;5072428;28;20880;-50
2020/12/11 03:03:16;;;;;;;18.23;9.40;;;-1.60;99.90;;;;;;5072615;28;20546;-50
2020/12/11 03:05:43;;;;;;;18.13;9.30;;;-1.60;99.90;;;;;;5072648;28;20443;-50
2020/12/11 03:08:09;;;;;;;15.20;8.07;;;-1.60;99.90;;;;;;5072619;28;20489;-51
2020/12/11 03:10:35;;;;;;;18.23;9.00;;;-1.60;99.90;;;;;;5072254;28;20492;-51
2020/12/11 03:13:03;;;;;;;18.20;8.90;;;-1.60;99.90;;;;;;5072303;28;20469;-51
2020/12/11 03:15:29;;;;;;;17.77;9.10;;;-1.60;99.90;;;;;;5072216;28;21164;-51
2020/12/11 03:17:56;;;;;;;16.80;8.47;;;-1.70;99.90;;;;;;5072309;28;20457;-51
2020/12/11 03:20:25;;;;;;;16.90;8.70;;;-1.80;99.90;;;;;;5072080;28;20940;-50
2020/12/11 03:22:52;;;;;;;16.63;9.03;;;-1.80;99.90;;;;;;5072269;28;20468;-50
2020/12/11 03:25:19;;;;;;;21.70;10.30;;;-1.90;99.90;;;;;;5072206;28;20936;-51
2020/12/11 03:27:46;;;;;;;18.30;9.30;;;-1.80;99.90;;;;;;5071711;28;20444;-51
2020/12/11 03:30:13;;;;;;;20.60;9.73;;;-2.00;99.90;;;;;;5071898;28;20545;-51
2020/12/11 03:32:40;;;;;;;20.20;9.70;;;-1.90;99.90;;;;;;5071648;28;20957;-51
2020/12/11 03:35:07;;;;;;;17.00;9.30;;;-2.00;99.90;;;;;;5072053;28;20496;-51
2020/12/11 03:37:34;;;;;;;18.87;8.90;;;-1.90;99.90;;;;;;5071920;28;20532;-51
2020/12/11 03:40:00;;;;;;;17.17;9.53;;;-1.70;99.90;;;;;;5071702;28;20489;-51
2020/12/11 03:42:27;;;;;;;19.53;9.40;;;-1.60;99.90;;;;;;5071543;28;20455;-51
2020/12/11 03:44:53;;;;;;;21.13;9.70;;;-1.50;99.90;;;;;;5072174;28;20447;-51
2020/12/11 03:47:20;;;;;;;17.10;8.40;;;-1.70;99.90;;;;;;5071634;28;20448;-50
2020/12/11 03:49:47;;;;;;;12.50;7.57;;;-1.80;99.90;;;;;;5071504;28;20497;-51
2020/12/11 03:52:13;;;;;;;18.37;8.30;;;-1.70;99.90;;;;;;5071685;28;20505;-51
2020/12/11 03:54:40;;;;;;;14.20;7.90;;;-2.00;99.90;;;;;;5071500;28;20528;-50
2020/12/11 03:57:07;;;;;;;14.47;7.13;;;-2.00;99.90;;;;;;5071182;28;20540;-51
2020/12/11 03:59:33;;;;;;;13.73;7.40;;;-1.90;99.90;;;;;;5071351;28;20520;-50
2020/12/11 04:02:00;;;;;;;15.40;8.07;;;-2.00;99.90;;;;;;5071738;28;20526;-50
2020/12/11 04:04:27;;;;;;;12.63;7.10;;;-2.10;99.90;;;;;;5134535;22;20920;-47
2020/12/11 04:06:53;;;;;;;13.17;7.30;;;-2.10;99.90;;;;;;5132719;27;20467;-48
2020/12/11 04:09:20;;;;;;;14.63;7.90;;;-2.10;99.90;;;;;;5132016;27;20452;-47
2020/12/11 04:11:47;;;;;;;12.70;7.13;;;-2.10;99.90;;;;;;5132560;27;20440;-47
2020/12/11 04:14:13;;;;;;;17.57;7.80;;;-2.10;99.90;;;;;;5132040;27;20495;-47
2020/12/11 04:16:40;;;;;;;14.37;7.60;;;-2.00;99.90;;;;;;5132349;27;20487;-46
2020/12/11 04:19:06;;;;;;;12.63;7.50;;;-2.00;99.90;;;;;;5131978;27;20449;-47
2020/12/11 04:21:34;;;;;;;10.87;6.70;;;-2.00;99.90;;;;;;5132187;27;20449;-47
2020/12/11 04:24:00;;;;;;;14.67;7.43;;;-1.90;99.90;;;;;;5130161;27;20551;-47
2020/12/11 04:26:26;;;;;;;14.00;7.63;;;-2.00;99.90;;;;;;5132301;27;20535;-47
2020/12/11 04:28:53;;;;;;;12.97;7.70;;;-2.00;99.90;;;;;;5132082;27;20439;-47
2020/12/11 04:31:20;;;;;;;11.83;6.80;;;-2.00;99.90;;;;;;5131138;27;20455;-47
2020/12/11 04:33:46;;;;;;;14.27;6.87;;;-2.00;99.90;;;;;;5131945;27;20547;-47
2020/12/11 04:36:17;;;;;;;14.10;7.07;;;-2.00;99.90;;;;;;5131741;27;20479;-47
2020/12/11 04:38:47;;;;;;;13.27;6.97;;;-2.00;99.90;;;;;;5129965;27;21059;-47
2020/12/11 04:41:14;;;;;;;14.53;6.87;;;-2.00;99.90;;;;;;5132030;27;20570;-48
2020/12/11 04:43:41;;;;;;;13.83;7.50;;;-1.90;99.90;;;;;;5131753;27;20547;-47
2020/12/11 04:46:08;;;;;;;13.77;8.00;;;-2.10;99.90;;;;;;5131915;27;20438;-47
2020/12/11 04:48:35;;;;;;;13.77;7.40;;;-2.00;99.90;;;;;;5132111;27;20451;-47
2020/12/11 04:51:02;;;;;;;19.20;7.83;;;-2.00;99.90;;;;;;5130202;27;20498;-47
2020/12/11 04:53:33;;;;;;;13.77;8.07;;;-2.00;99.90;;;;;;5111154;28;21012;-47
2020/12/11 04:56:04;;;;;;;12.90;6.83;;;-2.00;99.90;;;;;;5110974;28;21001;-47
2020/12/11 04:58:32;;;;;;;10.27;6.40;;;-1.90;99.90;;;;;;5111016;28;20874;-47
2020/12/11 05:01:03;;;;;;;12.70;7.27;;;-1.90;99.90;;;;;;5111039;28;20506;-47
2020/12/11 05:03:33;;;;;;;12.30;7.13;;;-2.00;99.90;;;;;;5111237;28;21013;-47
2020/12/11 05:06:00;;;;;;;17.13;6.70;;;-1.90;99.90;;;;;;5111527;28;20488;-47
2020/12/11 05:08:26;;;;;;;11.47;6.63;;;-1.90;99.90;;;;;;5112455;28;20886;-47
2020/12/11 05:10:53;;;;;;;11.87;7.17;;;-1.90;99.90;;;;;;5111044;28;20447;-47
2020/12/11 05:13:22;;;;;;;12.80;7.13;;;-1.90;99.90;;;;;;5124688;28;20884;-47
2020/12/11 05:16:08;;;;;;;11.03;6.87;;;-1.80;99.90;;;;;;5114701;27;20446;-47
2020/12/11 05:18:35;;;;;;;13.20;6.90;;;-1.60;99.90;;;;;;5122363;27;20846;-46
2020/12/11 05:21:15;;;;;;;15.10;7.97;;;-1.50;99.90;;;;;;5115403;27;21094;-47
2020/12/11 05:24:03;;;;;;;14.33;7.57;;;-1.70;99.90;;;;;;5126472;27;20940;-46
2020/12/11 05:26:31;;;;;;;12.17;7.40;;;-1.80;99.90;;;;;;5114516;28;20512;-47
2020/12/11 05:29:00;;;;;;;14.40;7.73;;;-1.80;99.90;;;;;;5114378;27;20440;-45
2020/12/11 05:31:27;;;;;;;11.43;6.80;;;-1.90;99.90;;;;;;5114278;27;20441;-47
2020/12/11 05:34:18;;;;;;;15.47;6.90;;;-2.00;99.90;;;;;;5133584;27;20512;-46
2020/12/11 05:36:52;;;;;;;12.77;6.63;;;-1.90;99.90;;;;;;5101503;27;20465;-47
2020/12/11 05:39:32;;;;;;;12.87;6.93;;;-1.70;99.90;;;;;;5122966;27;20528;-47
2020/12/11 05:42:00;;;;;;;9.67;6.90;;;-1.70;99.90;;;;;;5117770;27;20448;-47
2020/12/11 05:44:32;;;;;;;14.17;6.97;;;-1.70;99.90;;;;;;5127029;27;20466;-46
2020/12/11 05:47:15;;;;;;;11.73;6.83;;;-1.80;99.90;;;;;;5124195;27;20495;-47
2020/12/11 05:49:41;;;;;;;16.93;7.50;;;-1.80;99.90;;;;;;5114921;27;20429;-47
2020/12/11 05:52:12;;;;;;;14.33;7.27;;;-1.90;99.90;;;;;;5133433;27;20514;-47
2020/12/11 05:54:44;;;;;;;14.30;7.60;;;-1.80;99.90;;;;;;5128926;27;20871;-48
2020/12/11 05:57:12;;;;;;;15.93;7.60;;;-1.80;99.90;;;;;;5132370;27;20531;-47
2020/12/11 05:59:40;;;;;;;14.13;7.57;;;-1.90;99.90;;;;;;5117209;27;20445;-47
2020/12/11 06:02:07;;;;;;;15.57;8.37;;;-2.00;99.90;;;;;;5120318;27;20456;-47
2020/12/11 06:04:34;;;;;;;16.83;9.97;;;-1.90;99.90;;;;;;5122885;27;20546;-47
2020/12/11 06:07:01;;;;;;;15.83;8.47;;;-1.80;99.90;;;;;;5113771;28;20429;-47
2020/12/11 06:09:37;;;;;;;16.17;8.53;;;-1.80;99.90;;;;;;5115034;27;20438;-47
2020/12/11 06:12:05;;;;;;;22.97;10.90;;;-1.70;99.90;;;;;;5113605;27;20445;-48
2020/12/11 06:14:47;;;;;;;17.50;9.53;;;-1.80;99.90;;;;;;5113637;27;20454;-47
2020/12/11 06:17:16;;;;;;;12.70;7.90;;;-1.80;99.90;;;;;;5114526;27;20487;-46
2020/12/11 06:19:45;;;;;;;13.80;8.10;;;-1.90;99.90;;;;;;5113334;27;20511;-46
2020/12/11 06:22:12;;;;;;;15.80;8.37;;;-1.80;99.90;;;;;;5130938;27;20444;-46
2020/12/11 06:24:39;;;;;;;13.30;7.60;;;-1.90;99.90;;;;;;5120122;27;21012;-46
2020/12/11 06:27:06;;;;;;;11.47;7.53;;;-2.00;99.90;;;;;;5125424;27;20671;-46
2020/12/11 06:29:39;;;;;;;14.17;8.50;;;-2.00;99.90;;;;;;5118582;27;20795;-46
2020/12/11 06:32:07;;;;;;;15.37;7.90;;;-1.90;99.90;;;;;;5123508;27;20865;-47
2020/12/11 06:34:34;;;;;;;18.70;9.40;;;-2.10;99.90;;;;;;5112944;27;20541;-46
2020/12/11 06:37:01;;;;;;;18.40;8.90;;;-2.30;99.90;;;;;;5114698;27;20481;-47
2020/12/11 06:39:43;;;;;;;15.87;8.60;;;-2.30;99.90;;;;;;5128846;27;21109;-47
2020/12/11 06:42:10;;;;;;;17.17;9.20;;;-2.20;99.90;;;;;;5132135;27;20937;-47
2020/12/11 06:44:37;;;;;;;18.27;9.03;;;-2.20;99.90;;;;;;5132178;27;20457;-46
2020/12/11 06:47:19;;;;;;;17.33;9.63;;;-2.20;99.90;;;;;;5129607;27;20440;-47
2020/12/11 06:50:12;;;;;;;15.97;8.70;;;-2.40;99.90;;;;;;5112522;27;20433;-47
2020/12/11 06:52:39;;;;;;;17.80;8.80;;;-2.30;99.90;;;;;;5083976;27;20441;-47
2020/12/11 06:55:05;;;;;;;18.53;8.90;;;-2.30;99.90;;;;;;5112510;27;20461;-47
2020/12/11 06:57:34;;;;;;;15.20;7.90;;;-2.30;99.90;;;;;;5112433;27;20480;-47
2020/12/11 07:00:21;;;;;;;16.83;9.30;;;-2.20;99.90;;;;;;5112133;27;20931;-47
2020/12/11 07:03:30;;;;;;;19.60;9.47;;;-2.20;99.90;;;;;;5112655;27;20429;-47
2020/12/11 07:06:04;;;;;;;16.50;7.67;;;-2.20;99.90;;;;;;5112611;27;20452;-47
2020/12/11 07:08:30;;;;;;;13.30;7.47;;;-2.10;99.90;;;;;;5116024;27;20441;-47
2020/12/11 07:11:06;;;;;;;14.93;8.07;;;-1.90;99.90;;;;;;5112230;27;20537;-47
2020/12/11 07:13:35;;;;;;;11.30;7.30;;;-2.10;99.90;;;;;;5112608;27;20529;-47
2020/12/11 07:16:02;;;;;;;24.07;11.03;;;-2.30;99.90;;;;;;5112252;27;20449;-48
2020/12/11 07:18:29;;;;;;;101.07;24.57;;;-2.20;99.90;;;;;;5112312;27;20433;-48
2020/12/11 07:20:58;;;;;;;45.70;14.97;;;-2.20;99.90;;;;;;5111973;27;20438;-47
2020/12/11 07:23:25;;;;;;;21.53;9.83;;;-2.20;99.90;;;;;;5111966;27;20462;-47
2020/12/11 07:25:54;;;;;;;53.97;17.13;;;-2.20;99.90;;;;;;5131374;27;20957;-47
2020/12/11 07:28:21;;;;;;;44.33;14.43;;;-2.10;99.90;;;;;;5131186;27;20489;-48
2020/12/11 07:30:49;;;;;;;20.57;9.30;;;-2.10;99.90;;;;;;5130956;27;20509;-47
2020/12/11 07:33:16;;;;;;;20.53;10.43;;;-2.00;99.90;;;;;;5131198;27;20501;-47
2020/12/11 07:35:48;;;;;;;23.47;11.13;;;-2.10;99.90;;;;;;5112080;27;20977;-47
2020/12/11 07:38:17;;;;;;;36.40;13.70;;;-1.90;99.90;;;;;;5112113;27;20923;-47
2020/12/11 07:40:52;;;;;;;44.90;22.13;;;-1.80;99.90;;;;;;5111918;27;20438;-47
2020/12/11 07:43:19;;;;;;;35.37;15.53;;;-1.80;99.90;;;;;;5111944;27;20462;-46
2020/12/11 07:45:46;;;;;;;22.00;12.47;;;-1.80;99.90;;;;;;5111786;27;20934;-47
2020/12/11 07:48:13;;;;;;;30.73;12.37;;;-1.70;99.90;;;;;;5122841;27;20437;-47
2020/12/11 07:50:41;;;;;;;34.50;13.10;;;-1.60;99.90;;;;;;5132902;27;20444;-46
2020/12/11 07:53:10;;;;;;;43.63;16.57;;;-1.50;99.90;;;;;;5132630;27;20976;-46
2020/12/11 07:55:37;;;;;;;35.67;14.83;;;-1.40;99.90;;;;;;5132777;27;20449;-46
2020/12/11 07:58:04;;;;;;;27.70;13.83;;;-1.40;99.90;;;;;;5132784;27;20485;-46
2020/12/11 08:00:36;;;;;;;24.60;12.77;;;-1.40;99.90;;;;;;5132748;27;20503;-46
2020/12/11 08:03:06;;;;;;;36.33;14.80;;;-1.30;99.90;;;;;;5132679;27;20992;-46
2020/12/11 08:05:34;;;;;;;29.87;14.73;;;-1.20;99.90;;;;;;5132630;27;20439;-47
2020/12/11 08:08:01;;;;;;;24.60;13.20;;;-1.10;99.90;;;;;;5132675;27;20718;-46
2020/12/11 08:10:39;;;;;;;22.97;10.53;;;-1.10;99.90;;;;;;5132237;27;20446;-46
2020/12/11 08:13:15;;;;;;;18.10;10.40;;;-1.00;99.90;;;;;;5132242;27;20976;-46
2020/12/11 08:15:43;;;;;;;15.80;9.27;;;-0.90;99.90;;;;;;5132325;27;20493;-46
2020/12/11 08:18:20;;;;;;;14.43;8.70;;;-0.90;99.90;;;;;;5132315;27;20485;-47
2020/12/11 08:20:57;;;;;;;15.27;8.67;;;-0.90;99.90;;;;;;5132150;27;20445;-47
2020/12/11 08:23:35;;;;;;;16.60;8.53;;;-0.80;99.90;;;;;;5132048;27;20523;-47
2020/12/11 08:26:11;;;;;;;15.87;8.03;;;-0.80;99.90;;;;;;5132503;27;20530;-46
2020/12/11 08:28:38;;;;;;;12.97;7.97;;;-0.70;99.90;;;;;;5132189;27;20454;-47
2020/12/11 08:31:28;;;;;;;16.07;8.53;;;-0.70;99.90;;;;;;5131805;27;20444;-46
2020/12/11 08:34:04;;;;;;;16.47;9.37;;;-0.60;99.90;;;;;;5121162;27;20462;-47
2020/12/11 08:36:32;;;;;;;20.73;10.90;;;-0.60;99.90;;;;;;5132277;27;20425;-46
2020/12/11 08:39:10;;;;;;;42.77;16.50;;;-0.60;99.90;;;;;;5131835;27;20820;-46
2020/12/11 08:41:42;;;;;;;41.53;16.60;;;-0.50;99.90;;;;;;5132055;27;20447;-46
2020/12/11 08:44:27;;;;;;;36.30;16.10;;;0.00;99.90;;;;;;5131878;27;20461;-47
2020/12/11 08:47:06;;;;;;;21.90;9.80;;;0.50;99.90;;;;;;5130370;27;20442;-46
2020/12/11 08:49:45;;;;;;;16.60;9.10;;;0.60;99.90;;;;;;5130658;27;20447;-46
2020/12/11 08:52:12;;;;;;;16.90;9.33;;;0.50;99.90;;;;;;5131261;27;20446;-46
2020/12/11 08:54:38;;;;;;;24.73;12.17;;;0.60;99.90;;;;;;5131071;27;20488;-47
2020/12/11 08:57:06;;;;;;;21.03;10.10;;;0.70;99.90;;;;;;5131374;27;20478;-46
2020/12/11 08:59:32;;;;;;;16.80;8.37;;;0.50;99.90;;;;;;5130977;27;20443;-46
2020/12/11 09:02:01;;;;;;;15.90;8.60;;;0.70;99.90;;;;;;5130757;27;20450;-46
2020/12/11 09:04:27;;;;;;;23.47;10.37;;;0.80;99.90;;;;;;5130946;27;20493;-46
2020/12/11 09:06:54;;;;;;;19.00;10.60;;;0.90;99.90;;;;;;5131111;27;20443;-47
2020/12/11 09:09:20;;;;;;;18.17;10.20;;;1.00;99.90;;;;;;5130802;27;20448;-47
2020/12/11 09:11:47;;;;;;;18.43;9.63;;;1.00;99.90;;;;;;5131279;27;20439;-48
2020/12/11 09:14:15;;;;;;;14.83;8.50;;;1.40;99.90;;;;;;5129820;27;20520;-48
2020/12/11 09:16:41;;;;;;;16.00;8.30;;;1.40;99.90;;;;;;5130990;27;20487;-47
2020/12/11 09:19:08;;;;;;;14.10;8.03;;;1.20;99.90;;;;;;5123415;27;20456;-48
2020/12/11 09:21:35;;;;;;;14.60;8.60;;;1.20;99.90;;;;;;5111563;28;20830;-48
2020/12/11 09:24:02;;;;;;;16.70;8.63;;;1.30;99.90;;;;;;5111804;28;20477;-48
2020/12/11 09:26:30;;;;;;;14.53;8.40;;;1.30;99.90;;;;;;5115343;28;20450;-48
2020/12/11 09:29:03;;;;;;;17.73;9.53;;;1.30;99.90;;;;;;5124203;28;20453;-48
2020/12/11 09:31:31;;;;;;;17.17;9.57;;;1.40;99.90;;;;;;5110205;28;20451;-48
2020/12/11 09:34:00;;;;;;;15.83;9.77;;;1.30;99.90;;;;;;5111759;28;20480;-47
2020/12/11 09:36:27;;;;;;;16.97;9.70;;;1.20;99.90;;;;;;5110868;28;20439;-47
2020/12/11 09:38:53;;;;;;;24.97;10.87;;;0.90;99.90;;;;;;5111656;28;20451;-47
2020/12/11 09:41:25;;;;;;;15.97;9.13;;;0.80;99.90;;;;;;5121912;28;20451;-47
2020/12/11 09:46:47;;;;;;;19.60;11.37;;;0.70;99.90;;;;;;5115104;28;20473;-47
2020/12/11 09:49:15;;;;;;;20.20;10.57;;;0.80;99.90;;;;;;5130924;27;20439;-47
2020/12/11 09:51:53;;;;;;;16.37;9.00;;;1.00;99.90;;;;;;5131123;28;20450;-47
2020/12/11 09:54:22;;;;;;;14.57;8.97;;;1.20;99.90;;;;;;5131101;28;20462;-47
2020/12/11 09:56:49;;;;;;;19.47;9.83;;;1.40;99.90;;;;;;5130980;28;20991;-48
2020/12/11 09:59:18;;;;;;;16.63;10.07;;;1.30;99.90;;;;;;5130719;28;20452;-48
2020/12/11 10:02:12;;;;;;;17.83;10.30;;;1.50;99.90;;;;;;5133064;27;20483;-48
2020/12/11 10:04:39;;;;;;;16.87;9.77;;;1.80;99.90;;;;;;5132639;22;20576;-51
2020/12/11 10:07:05;;;;;;;18.07;10.40;;;1.50;99.90;;;;;;5093845;28;20440;-51
2020/12/11 10:09:32;;;;;;;17.97;10.00;;;1.60;99.90;;;;;;5093579;28;20864;-52
2020/12/11 10:12:01;;;;;;;17.97;10.00;;;1.70;99.90;;;;;;5094211;28;20522;-51
2020/12/11 10:14:32;;;;;;;21.63;11.73;;;1.50;99.90;;;;;;5093989;28;20994;-51
2020/12/11 10:17:00;;;;;;;18.63;9.67;;;1.50;99.90;;;;;;5093982;28;20571;-51
2020/12/11 10:19:26;;;;;;;21.13;10.07;;;1.60;99.90;;;;;;5093772;28;20949;-51
2020/12/11 10:21:54;;;;;;;16.73;9.90;;;1.60;99.90;;;;;;5094063;28;20456;-51
2020/12/11 10:24:21;;;;;;;19.03;10.60;;;1.50;99.90;;;;;;5093387;28;20883;-51
2020/12/11 10:26:48;;;;;;;15.60;9.53;;;1.70;99.90;;;;;;5093805;28;20498;-51
2020/12/11 10:29:14;;;;;;;13.83;8.63;;;1.50;99.90;;;;;;5093104;28;20992;-51
2020/12/11 10:31:42;;;;;;;15.87;9.47;;;1.50;99.90;;;;;;5093454;28;20502;-51
2020/12/11 10:34:10;;;;;;;14.40;8.47;;;1.60;99.90;;;;;;5093575;28;20465;-52
2020/12/11 10:36:37;;;;;;;17.03;10.10;;;1.60;99.90;;;;;;5093402;28;20472;-51
2020/12/11 10:39:04;;;;;;;15.63;9.50;;;1.70;99.90;;;;;;5093225;28;20445;-51
2020/12/11 10:41:31;;;;;;;15.67;10.17;;;1.90;99.90;;;;;;5093292;28;20437;-51
2020/12/11 10:43:57;;;;;;;17.10;8.73;;;2.00;99.90;;;;;;5093299;28;20460;-52
2020/12/11 10:46:24;;;;;;;13.47;8.03;;;2.20;99.90;;;;;;5093280;28;20865;-52
2020/12/11 10:48:50;;;;;;;20.47;8.80;;;2.40;99.90;;;;;;5093289;28;20514;-52
2020/12/11 10:51:18;;;;;;;13.17;8.07;;;2.50;99.90;;;;;;5093306;28;20452;-52
2020/12/11 10:53:46;;;;;;;16.33;9.40;;;2.80;99.90;;;;;;5093080;28;20889;-52
2020/12/11 10:56:14;;;;;;;15.67;8.93;;;2.70;99.90;;;;;;5093050;28;20453;-52
2020/12/11 10:58:41;;;;;;;16.93;9.20;;;2.60;99.90;;;;;;5092693;28;20497;-52
2020/12/11 11:01:08;;;;;;;15.20;9.00;;;2.90;99.90;;;;;;5093165;28;20511;-51
2020/12/11 11:03:35;;;;;;;16.83;9.43;;;3.00;99.90;;;;;;5090946;28;20486;-52
2020/12/11 11:06:07;;;;;;;15.67;9.80;;;3.20;99.90;;;;;;5092210;28;20458;-51
2020/12/11 11:08:42;;;;;;;17.63;9.40;;;3.30;99.90;;;;;;5091863;28;20461;-51
2020/12/11 11:11:09;;;;;;;18.83;9.50;;;3.30;99.90;;;;;;5092645;28;20480;-52
2020/12/11 11:13:44;;;;;;;18.50;9.90;;;3.40;99.90;;;;;;5091759;28;21001;-51
2020/12/11 11:16:13;;;;;;;19.00;8.87;;;3.20;99.90;;;;;;5092594;28;20972;-51
2020/12/11 11:18:44;;;;;;;20.00;10.73;;;3.00;99.90;;;;;;5090264;28;20897;-52
2020/12/11 11:21:41;;;;;;;17.40;9.50;;;3.00;99.90;;;;;;5088454;28;20449;-52
2020/12/11 11:24:24;;;;;;;20.00;10.57;;;2.80;99.90;;;;;;5092016;28;20458;-51
2020/12/11 11:27:06;;;;;;;19.07;10.40;;;3.00;99.90;;;;;;5092186;28;20930;-51
2020/12/11 11:29:32;;;;;;;21.17;10.53;;;3.00;99.90;;;;;;5091885;28;20869;-51
2020/12/11 11:31:59;;;;;;;22.53;11.87;;;2.80;99.90;;;;;;5092013;28;20449;-51
2020/12/11 11:34:25;;;;;;;19.17;9.80;;;2.70;99.90;;;;;;5092166;28;20461;-51
2020/12/11 11:36:53;;;;;;;19.00;10.63;;;2.80;99.90;;;;;;5092267;28;20446;-52
2020/12/11 11:39:21;;;;;;;21.57;10.80;;;2.80;99.90;;;;;;5091022;28;20461;-52
2020/12/11 11:41:48;;;;;;;19.40;9.37;;;2.70;99.90;;;;;;5092093;28;20449;-52
2020/12/11 11:47:08;;;;;;;18.20;11.13;;;2.80;99.90;;;;;;5092168;28;20421;-51
2020/12/11 11:49:39;;;;;;;16.10;9.53;;;2.60;99.90;;;;;;5091055;28;20947;-51
2020/12/11 11:52:18;;;;;;;22.60;10.80;;;2.70;99.90;;;;;;5091567;28;20454;-52
2020/12/11 11:54:46;;;;;;;21.10;10.60;;;2.90;99.90;;;;;;5092061;28;20468;-52
2020/12/11 11:57:12;;;;;;;21.63;11.80;;;2.70;99.90;;;;;;5091862;28;20539;-52
2020/12/11 11:59:39;;;;;;;21.13;10.00;;;2.60;99.90;;;;;;5091776;28;20460;-51
2020/12/11 12:02:05;;;;;;;21.60;10.93;;;2.70;99.90;;;;;;5091609;28;20450;-52
2020/12/11 12:04:32;;;;;;;22.00;11.23;;;2.60;99.90;;;;;;5091376;28;20995;-52
2020/12/11 12:06:58;;;;;;;22.87;11.47;;;2.70;99.90;;;;;;5091894;28;20448;-52
2020/12/11 12:09:25;;;;;;;21.80;11.67;;;2.90;99.90;;;;;;5091466;28;20924;-52
2020/12/11 12:11:52;;;;;;;22.13;11.20;;;2.80;99.90;;;;;;5091218;28;20441;-52
2020/12/11 12:14:19;;;;;;;19.00;9.53;;;2.70;99.90;;;;;;5091694;28;20454;-52
2020/12/11 12:16:46;;;;;;;20.23;11.63;;;2.80;99.90;;;;;;5091172;28;21155;-51
2020/12/11 12:19:17;;;;;;;18.10;10.20;;;2.80;99.90;;;;;;5091235;28;20537;-51
2020/12/11 12:22:17;;;;;;;19.23;10.80;;;2.60;99.90;;;;;;5090997;28;20489;-51
2020/12/11 12:30:30;;;;;;;17.30;9.70;;;2.60;99.90;;;;;;5028437;28;20447;-52
2020/12/11 12:35:44;;;;;;;21.17;10.97;;;2.70;99.90;;;;;;5088119;28;20441;-52
2020/12/11 12:38:15;;;;;;;18.80;10.43;;;2.50;99.90;;;;;;5091088;28;20481;-52
2020/12/11 12:43:29;;;;;;;19.33;11.23;;;2.70;99.90;;;;;;5073299;28;20538;-52
2020/12/11 12:45:56;;;;;;;22.33;11.27;;;2.60;99.90;;;;;;5090697;28;20479;-52
2020/12/11 12:48:22;;;;;;;19.60;11.50;;;2.50;99.90;;;;;;5090868;28;20433;-52
2020/12/11 12:50:49;;;;;;;20.00;11.13;;;2.50;99.90;;;;;;5090224;28;20596;-51
2020/12/11 12:53:15;;;;;;;21.37;11.80;;;2.50;99.90;;;;;;5089076;28;20446;-51
2020/12/11 12:55:44;;;;;;;26.50;12.67;;;2.40;99.90;;;;;;5083611;28;20431;-51
2020/12/11 12:58:13;;;;;;;24.17;12.60;;;2.40;99.90;;;;;;5075910;28;20486;-51
2020/12/11 13:00:56;;;;;;;23.60;13.03;;;2.30;99.90;;;;;;5069694;28;20932;-51
2020/12/11 13:06:06;;;;;;;22.13;12.10;;;2.10;99.90;;;;;;5074307;28;20974;-51